sensor_id;sensor_type;location;lat;lon;timestamp;pressure;altitude;pressure_sealevel;temperature
34310;BMP280;61664;48.112;11.662;2023-10-09T00:02:12;96203.53;;;18.86
34310;BMP280;61664;48.112;11.662;2023-10-09T00:04:44;96198.59;;;18.79
34310;BMP280;61664;48.112;11.662;2023-10-09T00:07:13;96196.41;;;18.83
34310;BMP280;61664;48.112;11.662;2023-10-09T00:09:44;96212.88;;;18.85
34310;BMP280;61664;48.112;11.662;2023-10-09T00:12:19;96204.28;;;18.87
34310;BMP280;61664;48.112;11.662;2023-10-09T00:14:51;96204.53;;;18.83
34310;BMP280;61664;48.112;11.662;2023-10-09T00:17:23;96204.53;;;18.83
34310;BMP280;61664;48.112;11.662;2023-10-09T00:19:51;96184.88;;;18.71
34310;BMP280;61664;48.112;11.662;2023-10-09T00:22:19;96178.22;;;18.67
34310;BMP280;61664;48.112;11.662;2023-10-09T00:24:58;96177.47;;;18.72
34310;BMP280;61664;48.112;11.662;2023-10-09T00:27:49;96174.53;;;18.70
34310;BMP280;61664;48.112;11.662;2023-10-09T00:30:17;96160.00;;;18.67
34310;BMP280;61664;48.112;11.662;2023-10-09T00:32:56;96164.91;;;18.75
34310;BMP280;61664;48.112;11.662;2023-10-09T00:35:28;96164.41;;;18.76
34310;BMP280;61664;48.112;11.662;2023-10-09T00:38:10;96152.34;;;18.77
34310;BMP280;61664;48.112;11.662;2023-10-09T00:40:52;96148.66;;;18.75
34310;BMP280;61664;48.112;11.662;2023-10-09T00:43:34;96156.03;;;18.80
34310;BMP280;61664;48.112;11.662;2023-10-09T00:46:07;96143.50;;;18.77
34310;BMP280;61664;48.112;11.662;2023-10-09T00:48:48;96153.81;;;18.84
34310;BMP280;61664;48.112;11.662;2023-10-09T00:51:30;96110.81;;;18.63
34310;BMP280;61664;48.112;11.662;2023-10-09T00:54:13;96134.38;;;18.80
34310;BMP280;61664;48.112;11.662;2023-10-09T00:56:46;96103.41;;;18.69
34310;BMP280;61664;48.112;11.662;2023-10-09T00:59:39;96118.13;;;18.80
34310;BMP280;61664;48.112;11.662;2023-10-09T01:02:21;96119.88;;;18.77
34310;BMP280;61664;48.112;11.662;2023-10-09T01:05:15;96108.56;;;18.73
34310;BMP280;61664;48.112;11.662;2023-10-09T01:07:48;96116.66;;;18.79
34310;BMP280;61664;48.112;11.662;2023-10-09T01:10:21;96112.97;;;18.76
34310;BMP280;61664;48.112;11.662;2023-10-09T01:12:48;96111.75;;;18.83
34310;BMP280;61664;48.112;11.662;2023-10-09T01:15:21;96115.19;;;18.83
34310;BMP280;61664;48.112;11.662;2023-10-09T01:18:10;96109.78;;;18.78
34310;BMP280;61664;48.112;11.662;2023-10-09T01:20:38;96100.69;;;18.69
34310;BMP280;61664;48.112;11.662;2023-10-09T01:23:12;96099.22;;;18.68
34310;BMP280;61664;48.112;11.662;2023-10-09T01:25:39;96094.53;;;18.69
34310;BMP280;61664;48.112;11.662;2023-10-09T01:28:11;96113.47;;;18.75
34310;BMP280;61664;48.112;11.662;2023-10-09T01:30:43;96101.69;;;18.72
34310;BMP280;61664;48.112;11.662;2023-10-09T01:33:10;96108.56;;;18.73
34310;BMP280;61664;48.112;11.662;2023-10-09T01:35:42;96102.41;;;18.73
34310;BMP280;61664;48.112;11.662;2023-10-09T01:38:20;96102.19;;;18.70
34310;BMP280;61664;48.112;11.662;2023-10-09T01:40:57;96108.56;;;18.73
34310;BMP280;61664;48.112;11.662;2023-10-09T01:43:33;96092.34;;;18.67
34310;BMP280;61664;48.112;11.662;2023-10-09T01:46:01;96092.81;;;18.71
34310;BMP280;61664;48.112;11.662;2023-10-09T01:48:28;96096.25;;;18.78
34310;BMP280;61664;48.112;11.662;2023-10-09T01:50:59;96089.34;;;18.82
34310;BMP280;61664;48.112;11.662;2023-10-09T01:53:28;96090.09;;;18.83
34310;BMP280;61664;48.112;11.662;2023-10-09T01:55:56;96072.09;;;18.80
34310;BMP280;61664;48.112;11.662;2023-10-09T01:58:26;96075.81;;;18.77
34310;BMP280;61664;48.112;11.662;2023-10-09T02:00:54;96079.75;;;18.81
34310;BMP280;61664;48.112;11.662;2023-10-09T02:03:24;96075.56;;;18.80
34310;BMP280;61664;48.112;11.662;2023-10-09T02:05:52;96070.41;;;18.77
34310;BMP280;61664;48.112;11.662;2023-10-09T02:08:45;96076.56;;;18.83
34310;BMP280;61664;48.112;11.662;2023-10-09T02:11:16;96073.84;;;18.83
34310;BMP280;61664;48.112;11.662;2023-10-09T02:14:05;96066.22;;;18.81
34310;BMP280;61664;48.112;11.662;2023-10-09T02:16:49;96066.94;;;18.82
34310;BMP280;61664;48.112;11.662;2023-10-09T02:19:34;96063.75;;;18.83
34310;BMP280;61664;48.112;11.662;2023-10-09T02:22:02;96048.28;;;18.73
34310;BMP280;61664;48.112;11.662;2023-10-09T02:24:44;96062.50;;;18.84
34310;BMP280;61664;48.112;11.662;2023-10-09T02:27:25;96060.06;;;18.81
34310;BMP280;61664;48.112;11.662;2023-10-09T02:30:15;96037.66;;;18.75
34310;BMP280;61664;48.112;11.662;2023-10-09T02:32:43;96056.34;;;18.84
34310;BMP280;61664;48.112;11.662;2023-10-09T02:35:11;96045.09;;;18.68
34310;BMP280;61664;48.112;11.662;2023-10-09T02:37:58;96035.50;;;18.67
34310;BMP280;61664;48.112;11.662;2023-10-09T02:40:28;96034.53;;;18.59
34310;BMP280;61664;48.112;11.662;2023-10-09T02:43:00;96039.94;;;18.59
34310;BMP280;61664;48.112;11.662;2023-10-09T02:45:27;96035.53;;;18.56
34310;BMP280;61664;48.112;11.662;2023-10-09T02:48:02;96036.28;;;18.51
34310;BMP280;61664;48.112;11.662;2023-10-09T02:50:37;96026.44;;;18.48
34310;BMP280;61664;48.112;11.662;2023-10-09T02:53:05;96014.94;;;18.37
34310;BMP280;61664;48.112;11.662;2023-10-09T02:55:45;96027.72;;;18.42
34310;BMP280;61664;48.112;11.662;2023-10-09T02:58:32;96018.34;;;18.37
34310;BMP280;61664;48.112;11.662;2023-10-09T03:01:03;96021.06;;;18.37
34310;BMP280;61664;48.112;11.662;2023-10-09T03:03:35;96017.13;;;18.38
34310;BMP280;61664;48.112;11.662;2023-10-09T03:06:02;96017.13;;;18.38
34310;BMP280;61664;48.112;11.662;2023-10-09T03:08:38;96017.41;;;18.40
34310;BMP280;61664;48.112;11.662;2023-10-09T03:11:08;96026.44;;;18.48
34310;BMP280;61664;48.112;11.662;2023-10-09T03:13:43;96005.06;;;18.39
34310;BMP280;61664;48.112;11.662;2023-10-09T03:16:12;96016.84;;;18.47
34310;BMP280;61664;48.112;11.662;2023-10-09T03:18:44;96016.63;;;18.45
34310;BMP280;61664;48.112;11.662;2023-10-09T03:21:11;96012.00;;;18.40
34310;BMP280;61664;48.112;11.662;2023-10-09T03:23:38;96008.53;;;18.40
34310;BMP280;61664;48.112;11.662;2023-10-09T03:26:05;95993.53;;;18.33
34310;BMP280;61664;48.112;11.662;2023-10-09T03:28:48;95996.97;;;18.33
34310;BMP280;61664;48.112;11.662;2023-10-09T03:31:16;96003.09;;;18.40
34310;BMP280;61664;48.112;11.662;2023-10-09T03:33:43;95992.31;;;18.34
34310;BMP280;61664;48.112;11.662;2023-10-09T03:36:10;95994.75;;;18.38
34310;BMP280;61664;48.112;11.662;2023-10-09T03:38:38;95993.78;;;18.35
34310;BMP280;61664;48.112;11.662;2023-10-09T03:41:06;95992.09;;;18.32
34310;BMP280;61664;48.112;11.662;2023-10-09T03:43:35;95993.31;;;18.31
34310;BMP280;61664;48.112;11.662;2023-10-09T03:46:10;95975.63;;;18.19
34310;BMP280;61664;48.112;11.662;2023-10-09T03:48:50;95990.88;;;18.22
34310;BMP280;61664;48.112;11.662;2023-10-09T03:51:24;95967.56;;;18.08
34310;BMP280;61664;48.112;11.662;2023-10-09T03:53:53;96005.09;;;18.28
34310;BMP280;61664;48.112;11.662;2023-10-09T03:56:20;95996.28;;;18.27
34310;BMP280;61664;48.112;11.662;2023-10-09T03:58:50;95991.09;;;18.29
34310;BMP280;61664;48.112;11.662;2023-10-09T04:01:21;95991.56;;;18.28
34310;BMP280;61664;48.112;11.662;2023-10-09T04:04:07;95990.63;;;18.25
34310;BMP280;61664;48.112;11.662;2023-10-09T04:06:37;95982.28;;;18.18
34310;BMP280;61664;48.112;11.662;2023-10-09T04:09:10;95993.81;;;18.24
34310;BMP280;61664;48.112;11.662;2023-10-09T04:12:00;95987.69;;;18.18
34310;BMP280;61664;48.112;11.662;2023-10-09T04:14:47;95983.50;;;18.17
34310;BMP280;61664;48.112;11.662;2023-10-09T04:17:17;95982.53;;;18.20
34310;BMP280;61664;48.112;11.662;2023-10-09T04:19:56;95988.66;;;18.26
34310;BMP280;61664;48.112;11.662;2023-10-09T04:22:41;95990.84;;;18.33
34310;BMP280;61664;48.112;11.662;2023-10-09T04:25:19;95992.31;;;18.34
34310;BMP280;61664;48.112;11.662;2023-10-09T04:27:57;95986.91;;;18.34
34310;BMP280;61664;48.112;11.662;2023-10-09T04:30:39;95977.84;;;18.26
34310;BMP280;61664;48.112;11.662;2023-10-09T04:33:11;95988.88;;;18.33
34310;BMP280;61664;48.112;11.662;2023-10-09T04:36:08;95979.56;;;18.23
34310;BMP280;61664;48.112;11.662;2023-10-09T04:38:54;95981.03;;;18.19
34310;BMP280;61664;48.112;11.662;2023-10-09T04:41:42;95983.25;;;18.20
34310;BMP280;61664;48.112;11.662;2023-10-09T04:44:10;95975.41;;;18.11
34310;BMP280;61664;48.112;11.662;2023-10-09T04:46:49;95986.44;;;18.19
34310;BMP280;61664;48.112;11.662;2023-10-09T04:49:39;95988.91;;;18.17
34310;BMP280;61664;48.112;11.662;2023-10-09T04:52:16;95979.09;;;18.14
34310;BMP280;61664;48.112;11.662;2023-10-09T04:54:52;95996.03;;;18.14
34310;BMP280;61664;48.112;11.662;2023-10-09T04:57:43;95982.81;;;18.11
34310;BMP280;61664;48.112;11.662;2023-10-09T05:00:18;95984.25;;;18.06
34310;BMP280;61664;48.112;11.662;2023-10-09T05:03:00;95982.03;;;17.99
34310;BMP280;61664;48.112;11.662;2023-10-09T05:05:42;95968.56;;;17.93
34310;BMP280;61664;48.112;11.662;2023-10-09T05:08:13;95977.38;;;18.05
34310;BMP280;61664;48.112;11.662;2023-10-09T05:11:03;95997.06;;;18.06
34310;BMP280;61664;48.112;11.662;2023-10-09T05:13:36;95984.53;;;18.03
34310;BMP280;61664;48.112;11.662;2023-10-09T05:16:18;95981.59;;;18.01
34310;BMP280;61664;48.112;11.662;2023-10-09T05:18:50;95977.16;;;17.98
34310;BMP280;61664;48.112;11.662;2023-10-09T05:21:31;95984.28;;;18.01
34310;BMP280;61664;48.112;11.662;2023-10-09T05:24:01;95997.28;;;18.08
34310;BMP280;61664;48.112;11.662;2023-10-09T05:26:48;96000.00;;;18.08
34310;BMP280;61664;48.112;11.662;2023-10-09T05:29:24;96010.56;;;18.11
34310;BMP280;61664;48.112;11.662;2023-10-09T05:32:05;96006.63;;;18.07
34310;BMP280;61664;48.112;11.662;2023-10-09T05:34:44;96007.38;;;18.07
34310;BMP280;61664;48.112;11.662;2023-10-09T05:37:30;96010.56;;;18.11
34310;BMP280;61664;48.112;11.662;2023-10-09T05:40:05;96022.34;;;18.14
34310;BMP280;61664;48.112;11.662;2023-10-09T05:42:46;96019.16;;;18.10
34310;BMP280;61664;48.112;11.662;2023-10-09T05:45:26;96024.81;;;18.06
34310;BMP280;61664;48.112;11.662;2023-10-09T05:48:12;96027.53;;;18.06
34310;BMP280;61664;48.112;11.662;2023-10-09T05:50:44;96024.59;;;17.99
34310;BMP280;61664;48.112;11.662;2023-10-09T05:53:30;96028.75;;;18.00
34310;BMP280;61664;48.112;11.662;2023-10-09T05:56:12;96008.38;;;17.87
34310;BMP280;61664;48.112;11.662;2023-10-09T05:58:59;96016.50;;;17.93
34310;BMP280;61664;48.112;11.662;2023-10-09T06:01:44;96011.59;;;17.91
34310;BMP280;61664;48.112;11.662;2023-10-09T06:04:18;96010.59;;;17.94
34310;BMP280;61664;48.112;11.662;2023-10-09T06:06:47;96018.47;;;18.04
34310;BMP280;61664;48.112;11.662;2023-10-09T06:09:23;96004.69;;;17.96
34310;BMP280;61664;48.112;11.662;2023-10-09T06:12:10;96023.59;;;18.07
34310;BMP280;61664;48.112;11.662;2023-10-09T06:14:56;96032.44;;;18.13
34310;BMP280;61664;48.112;11.662;2023-10-09T06:17:46;96019.91;;;18.16
34310;BMP280;61664;48.112;11.662;2023-10-09T06:20:19;96034.84;;;18.28
34310;BMP280;61664;48.112;11.662;2023-10-09T06:23:05;96033.34;;;18.38
34310;BMP280;61664;48.112;11.662;2023-10-09T06:25:50;96022.81;;;18.40
34310;BMP280;61664;48.112;11.662;2023-10-09T06:28:29;96025.97;;;18.55
34310;BMP280;61664;48.112;11.662;2023-10-09T06:31:02;96015.13;;;18.55
34310;BMP280;61664;48.112;11.662;2023-10-09T06:33:49;96020.97;;;18.70
34310;BMP280;61664;48.112;11.662;2023-10-09T06:36:36;96013.09;;;18.73
34310;BMP280;61664;48.112;11.662;2023-10-09T06:39:12;96012.81;;;18.82
34310;BMP280;61664;48.112;11.662;2023-10-09T06:41:58;96031.44;;;18.96
34310;BMP280;61664;48.112;11.662;2023-10-09T06:44:36;96020.34;;;19.00
34310;BMP280;61664;48.112;11.662;2023-10-09T06:47:21;96023.03;;;19.05
34310;BMP280;61664;48.112;11.662;2023-10-09T06:49:51;96036.72;;;19.24
34310;BMP280;61664;48.112;11.662;2023-10-09T06:52:36;96019.44;;;19.27
34310;BMP280;61664;48.112;11.662;2023-10-09T06:55:22;96019.81;;;19.42
34310;BMP280;61664;48.112;11.662;2023-10-09T06:58:00;96025.66;;;19.52
34310;BMP280;61664;48.112;11.662;2023-10-09T07:00:40;96030.47;;;19.65
34310;BMP280;61664;48.112;11.662;2023-10-09T07:03:18;96035.78;;;19.81
34310;BMP280;61664;48.112;11.662;2023-10-09T07:05:46;96029.31;;;19.90
34310;BMP280;61664;48.112;11.662;2023-10-09T07:08:32;96039.31;;;20.01
34310;BMP280;61664;48.112;11.662;2023-10-09T07:11:03;96039.44;;;20.08
34310;BMP280;61664;48.112;11.662;2023-10-09T07:14:02;96040.94;;;20.09
34310;BMP280;61664;48.112;11.662;2023-10-09T07:16:29;96042.53;;;20.23
34310;BMP280;61664;48.112;11.662;2023-10-09T07:19:05;96034.56;;;20.31
34310;BMP280;61664;48.112;11.662;2023-10-09T07:21:51;96050.50;;;20.83
34310;BMP280;61664;48.112;11.662;2023-10-09T07:24:20;96050.59;;;21.28
34310;BMP280;61664;48.112;11.662;2023-10-09T07:27:04;96053.63;;;21.57
34310;BMP280;61664;48.112;11.662;2023-10-09T07:29:38;96052.13;;;21.88
34310;BMP280;61664;48.112;11.662;2023-10-09T07:32:17;96041.69;;;22.18
34310;BMP280;61664;48.112;11.662;2023-10-09T07:34:50;96056.94;;;22.60
34310;BMP280;61664;48.112;11.662;2023-10-09T07:37:23;96059.72;;;22.81
34310;BMP280;61664;48.112;11.662;2023-10-09T07:39:51;96048.59;;;22.92
34310;BMP280;61664;48.112;11.662;2023-10-09T07:42:25;96049.28;;;23.89
34310;BMP280;61664;48.112;11.662;2023-10-09T07:45:05;96045.53;;;24.94
34310;BMP280;61664;48.112;11.662;2023-10-09T07:47:53;96055.06;;;25.84
34310;BMP280;61664;48.112;11.662;2023-10-09T07:50:41;96051.97;;;26.43
34310;BMP280;61664;48.112;11.662;2023-10-09T07:53:16;96052.72;;;27.08
34310;BMP280;61664;48.112;11.662;2023-10-09T07:55:56;96057.06;;;27.36
34310;BMP280;61664;48.112;11.662;2023-10-09T07:58:25;96061.09;;;27.10
34310;BMP280;61664;48.112;11.662;2023-10-09T08:00:54;96054.72;;;26.75
34310;BMP280;61664;48.112;11.662;2023-10-09T08:03:57;96058.19;;;26.43
34310;BMP280;61664;48.112;11.662;2023-10-09T08:06:25;96061.84;;;26.38
34310;BMP280;61664;48.112;11.662;2023-10-09T08:09:28;96059.53;;;26.12
34310;BMP280;61664;48.112;11.662;2023-10-09T08:12:16;96072.75;;;25.83
34310;BMP280;61664;48.112;11.662;2023-10-09T08:15:07;96066.03;;;25.62
34310;BMP280;61664;48.112;11.662;2023-10-09T08:17:52;96066.41;;;25.58
34310;BMP280;61664;48.112;11.662;2023-10-09T08:20:40;96071.13;;;25.50
34310;BMP280;61664;48.112;11.662;2023-10-09T08:23:30;96076.03;;;25.29
34310;BMP280;61664;48.112;11.662;2023-10-09T08:26:04;96082.75;;;25.12
34310;BMP280;61664;48.112;11.662;2023-10-09T08:28:41;96066.84;;;24.88
34310;BMP280;61664;48.112;11.662;2023-10-09T08:31:18;96072.13;;;24.86
34310;BMP280;61664;48.112;11.662;2023-10-09T08:33:46;96069.38;;;24.86
34310;BMP280;61664;48.112;11.662;2023-10-09T08:36:26;96076.28;;;24.87
34310;BMP280;61664;48.112;11.662;2023-10-09T08:39:03;96074.72;;;24.99
34310;BMP280;61664;48.112;11.662;2023-10-09T08:41:51;96076.72;;;25.06
34310;BMP280;61664;48.112;11.662;2023-10-09T08:44:20;96083.31;;;25.19
34310;BMP280;61664;48.112;11.662;2023-10-09T08:46:54;96083.72;;;25.30
34310;BMP280;61664;48.112;11.662;2023-10-09T08:49:21;96083.16;;;25.39
34310;BMP280;61664;48.112;11.662;2023-10-09T08:51:48;96075.31;;;25.66
34310;BMP280;61664;48.112;11.662;2023-10-09T08:54:16;96074.59;;;25.81
34310;BMP280;61664;48.112;11.662;2023-10-09T08:56:46;96077.16;;;25.79
34310;BMP280;61664;48.112;11.662;2023-10-09T08:59:20;96078.63;;;25.65
34310;BMP280;61664;48.112;11.662;2023-10-09T09:01:48;96087.72;;;25.59
34310;BMP280;61664;48.112;11.662;2023-10-09T09:04:39;96088.44;;;25.52
34310;BMP280;61664;48.112;11.662;2023-10-09T09:07:28;96079.91;;;25.41
34310;BMP280;61664;48.112;11.662;2023-10-09T09:09:59;96095.41;;;25.38
34310;BMP280;61664;48.112;11.662;2023-10-09T09:12:45;96090.78;;;25.26
34310;BMP280;61664;48.112;11.662;2023-10-09T09:15:16;96091.88;;;25.23
34310;BMP280;61664;48.112;11.662;2023-10-09T09:17:47;96091.72;;;25.21
34310;BMP280;61664;48.112;11.662;2023-10-09T09:20:24;96074.38;;;25.10
34310;BMP280;61664;48.112;11.662;2023-10-09T09:23:01;96094.06;;;25.16
34310;BMP280;61664;48.112;11.662;2023-10-09T09:25:47;96099.16;;;25.12
34310;BMP280;61664;48.112;11.662;2023-10-09T09:28:15;96091.34;;;25.09
34310;BMP280;61664;48.112;11.662;2023-10-09T09:30:48;96102.47;;;25.19
34310;BMP280;61664;48.112;11.662;2023-10-09T09:33:24;96105.41;;;25.36
34310;BMP280;61664;48.112;11.662;2023-10-09T09:36:07;96106.16;;;25.44
34310;BMP280;61664;48.112;11.662;2023-10-09T09:38:35;96096.84;;;25.47
34310;BMP280;61664;48.112;11.662;2023-10-09T09:41:24;96093.56;;;25.56
34310;BMP280;61664;48.112;11.662;2023-10-09T09:43:59;96085.56;;;25.58
34310;BMP280;61664;48.112;11.662;2023-10-09T09:46:34;96087.72;;;25.67
34310;BMP280;61664;48.112;11.662;2023-10-09T09:49:06;96103.97;;;25.80
34310;BMP280;61664;48.112;11.662;2023-10-09T09:51:43;96098.34;;;25.78
34310;BMP280;61664;48.112;11.662;2023-10-09T09:54:14;96094.09;;;25.85
34310;BMP280;61664;48.112;11.662;2023-10-09T09:56:45;96092.81;;;25.93
34310;BMP280;61664;48.112;11.662;2023-10-09T09:59:18;96079.50;;;25.82
34310;BMP280;61664;48.112;11.662;2023-10-09T10:01:51;96097.59;;;25.85
34310;BMP280;61664;48.112;11.662;2023-10-09T10:04:38;96107.22;;;25.86
34310;BMP280;61664;48.112;11.662;2023-10-09T10:07:07;96102.88;;;25.83
34310;BMP280;61664;48.112;11.662;2023-10-09T10:09:41;96116.38;;;25.89
34310;BMP280;61664;48.112;11.662;2023-10-09T10:12:12;96099.91;;;25.96
34310;BMP280;61664;48.112;11.662;2023-10-09T10:14:54;96102.09;;;26.06
34310;BMP280;61664;48.112;11.662;2023-10-09T10:17:26;96101.34;;;26.13
34310;BMP280;61664;48.112;11.662;2023-10-09T10:20:08;96101.72;;;26.24
34310;BMP280;61664;48.112;11.662;2023-10-09T10:30:47;96103.88;;;26.81
34310;BMP280;61664;48.112;11.662;2023-10-09T10:33:14;96091.47;;;26.80
34310;BMP280;61664;48.112;11.662;2023-10-09T10:35:43;96095.97;;;26.93
34310;BMP280;61664;48.112;11.662;2023-10-09T10:38:31;96105.94;;;27.05
34310;BMP280;61664;48.112;11.662;2023-10-09T10:41:16;96105.34;;;27.07
34310;BMP280;61664;48.112;11.662;2023-10-09T10:43:47;96106.47;;;27.04
34310;BMP280;61664;48.112;11.662;2023-10-09T10:46:23;96095.97;;;26.93
34310;BMP280;61664;48.112;11.662;2023-10-09T10:49:07;96102.72;;;26.92
34310;BMP280;61664;48.112;11.662;2023-10-09T10:51:42;96100.38;;;26.88
34310;BMP280;61664;48.112;11.662;2023-10-09T10:54:23;96098.56;;;26.83
34310;BMP280;61664;48.112;11.662;2023-10-09T10:57:00;96096.38;;;26.81
34310;BMP280;61664;48.112;11.662;2023-10-09T10:59:31;96085.41;;;26.81
34310;BMP280;61664;48.112;11.662;2023-10-09T11:02:10;96090.13;;;26.88
34310;BMP280;61664;48.112;11.662;2023-10-09T11:04:38;96084.59;;;26.96
34310;BMP280;61664;48.112;11.662;2023-10-09T11:07:08;96084.53;;;27.04
34310;BMP280;61664;48.112;11.662;2023-10-09T11:09:57;96079.75;;;27.12
34310;BMP280;61664;48.112;11.662;2023-10-09T11:12:46;96073.06;;;27.22
34310;BMP280;61664;48.112;11.662;2023-10-09T11:15:36;96074.94;;;27.20
34310;BMP280;61664;48.112;11.662;2023-10-09T11:18:15;96085.19;;;27.19
34310;BMP280;61664;48.112;11.662;2023-10-09T11:20:57;96081.91;;;27.13
34310;BMP280;61664;48.112;11.662;2023-10-09T11:23:24;96082.66;;;27.14
34310;BMP280;61664;48.112;11.662;2023-10-09T11:26:12;96067.28;;;27.18
34310;BMP280;61664;48.112;11.662;2023-10-09T11:29:06;96066.47;;;27.25
34310;BMP280;61664;48.112;11.662;2023-10-09T11:32:06;96066.56;;;27.35
34310;BMP280;61664;48.112;11.662;2023-10-09T11:34:35;96062.56;;;27.53
34310;BMP280;61664;48.112;11.662;2023-10-09T11:37:13;96063.41;;;27.63
34310;BMP280;61664;48.112;11.662;2023-10-09T11:39:52;96065.38;;;27.70
34310;BMP280;61664;48.112;11.662;2023-10-09T11:42:27;96070.72;;;27.68
34310;BMP280;61664;48.112;11.662;2023-10-09T11:45:24;96055.56;;;27.60
34310;BMP280;61664;48.112;11.662;2023-10-09T11:47:53;96061.63;;;27.75
34310;BMP280;61664;48.112;11.662;2023-10-09T11:50:44;96050.50;;;27.91
34310;BMP280;61664;48.112;11.662;2023-10-09T11:53:19;96056.66;;;27.99
34310;BMP280;61664;48.112;11.662;2023-10-09T11:55:50;96051.97;;;27.92
34310;BMP280;61664;48.112;11.662;2023-10-09T11:58:20;96059.06;;;27.95
34310;BMP280;61664;48.112;11.662;2023-10-09T12:00:58;96060.78;;;27.90
34310;BMP280;61664;48.112;11.662;2023-10-09T12:03:32;96047.75;;;27.73
34310;BMP280;61664;48.112;11.662;2023-10-09T12:06:02;96053.25;;;27.73
34310;BMP280;61664;48.112;11.662;2023-10-09T12:08:34;96040.66;;;27.70
34310;BMP280;61664;48.112;11.662;2023-10-09T12:11:04;96052.53;;;27.73
34310;BMP280;61664;48.112;11.662;2023-10-09T12:13:36;96062.78;;;27.72
34310;BMP280;61664;48.112;11.662;2023-10-09T12:16:05;96058.75;;;27.73
34310;BMP280;61664;48.112;11.662;2023-10-09T12:18:38;96052.19;;;27.69
34310;BMP280;61664;48.112;11.662;2023-10-09T12:21:07;96047.13;;;27.65
34310;BMP280;61664;48.112;11.662;2023-10-09T12:23:34;96054.88;;;27.59
34310;BMP280;61664;48.112;11.662;2023-10-09T12:26:04;96050.22;;;27.45
34310;BMP280;61664;48.112;11.662;2023-10-09T12:28:32;96044.25;;;27.39
34310;BMP280;61664;48.112;11.662;2023-10-09T12:31:01;96045.34;;;27.35
34310;BMP280;61664;48.112;11.662;2023-10-09T12:33:30;96044.63;;;27.35
34310;BMP280;61664;48.112;11.662;2023-10-09T12:35:58;96044.13;;;27.29
34310;BMP280;61664;48.112;11.662;2023-10-09T12:38:29;96046.22;;;27.21
34310;BMP280;61664;48.112;11.662;2023-10-09T12:41:07;96056.84;;;27.17
34310;BMP280;61664;48.112;11.662;2023-10-09T12:43:53;96051.41;;;27.09
34310;BMP280;61664;48.112;11.662;2023-10-09T12:46:21;96054.94;;;27.02
34310;BMP280;61664;48.112;11.662;2023-10-09T12:48:53;96063.34;;;26.97
34310;BMP280;61664;48.112;11.662;2023-10-09T12:51:23;96057.25;;;26.81
34310;BMP280;61664;48.112;11.662;2023-10-09T12:53:57;96063.00;;;26.68
34310;BMP280;61664;48.112;11.662;2023-10-09T12:56:25;96061.03;;;26.61
34310;BMP280;61664;48.112;11.662;2023-10-09T12:59:00;96071.28;;;26.53
34310;BMP280;61664;48.112;11.662;2023-10-09T13:01:28;96070.97;;;26.41
34310;BMP280;61664;48.112;11.662;2023-10-09T13:03:59;96067.31;;;26.38
34310;BMP280;61664;48.112;11.662;2023-10-09T13:06:39;96050.41;;;26.25
34310;BMP280;61664;48.112;11.662;2023-10-09T13:09:13;96066.66;;;26.23
34310;BMP280;61664;48.112;11.662;2023-10-09T13:11:42;96081.63;;;26.22
34310;BMP280;61664;48.112;11.662;2023-10-09T13:14:10;96070.34;;;26.18
34310;BMP280;61664;48.112;11.662;2023-10-09T13:16:45;96072.53;;;26.12
34310;BMP280;61664;48.112;11.662;2023-10-09T13:19:12;96075.28;;;26.04
34310;BMP280;61664;48.112;11.662;2023-10-09T13:21:39;96073.28;;;25.97
34310;BMP280;61664;48.112;11.662;2023-10-09T13:24:07;96071.47;;;25.92
34310;BMP280;61664;48.112;11.662;2023-10-09T13:26:44;96080.06;;;25.88
34310;BMP280;61664;48.112;11.662;2023-10-09T13:29:18;96082.44;;;25.84
34310;BMP280;61664;48.112;11.662;2023-10-09T13:31:51;96079.34;;;25.80
34310;BMP280;61664;48.112;11.662;2023-10-09T13:34:24;96073.31;;;25.74
34310;BMP280;61664;48.112;11.662;2023-10-09T13:36:55;96078.44;;;25.70
34310;BMP280;61664;48.112;11.662;2023-10-09T13:39:25;96079.16;;;25.71
34310;BMP280;61664;48.112;11.662;2023-10-09T13:41:58;96076.59;;;25.65
34310;BMP280;61664;48.112;11.662;2023-10-09T13:44:31;96081.72;;;25.61
34310;BMP280;61664;48.112;11.662;2023-10-09T13:47:02;96078.78;;;25.59
34310;BMP280;61664;48.112;11.662;2023-10-09T13:49:32;96066.00;;;25.46
34310;BMP280;61664;48.112;11.662;2023-10-09T13:52:02;96070.97;;;25.40
34310;BMP280;61664;48.112;11.662;2023-10-09T13:54:30;96084.09;;;25.42
34310;BMP280;61664;48.112;11.662;2023-10-09T13:57:04;96068.75;;;25.24
34310;BMP280;61664;48.112;11.662;2023-10-09T13:59:33;96084.97;;;25.22
34310;BMP280;61664;48.112;11.662;2023-10-09T14:02:03;96080.19;;;25.07
34310;BMP280;61664;48.112;11.662;2023-10-09T14:04:37;96088.91;;;24.47
34310;BMP280;61664;48.112;11.662;2023-10-09T14:07:05;96084.59;;;23.74
34310;BMP280;61664;48.112;11.662;2023-10-09T14:09:35;96110.47;;;23.18
34310;BMP280;61664;48.112;11.662;2023-10-09T14:12:11;96090.69;;;22.57
34310;BMP280;61664;48.112;11.662;2023-10-09T14:14:43;96054.13;;;22.13
34310;BMP280;61664;48.112;11.662;2023-10-09T14:17:22;96028.28;;;21.80
34310;BMP280;61664;48.112;11.662;2023-10-09T14:19:57;96049.94;;;21.54
34310;BMP280;61664;48.112;11.662;2023-10-09T14:22:43;96055.00;;;21.31
34310;BMP280;61664;48.112;11.662;2023-10-09T14:25:12;96044.00;;;21.24
34310;BMP280;61664;48.112;11.662;2023-10-09T14:27:42;96021.16;;;21.14
34310;BMP280;61664;48.112;11.662;2023-10-09T14:30:09;96013.81;;;21.09
34310;BMP280;61664;48.112;11.662;2023-10-09T14:32:45;95993.50;;;20.96
34310;BMP280;61664;48.112;11.662;2023-10-09T14:35:18;96025.13;;;21.13
34310;BMP280;61664;48.112;11.662;2023-10-09T14:37:48;96005.47;;;21.07
34310;BMP280;61664;48.112;11.662;2023-10-09T14:40:15;96003.06;;;21.03
34310;BMP280;61664;48.112;11.662;2023-10-09T14:42:48;95998.78;;;21.08
34310;BMP280;61664;48.112;11.662;2023-10-09T14:45:22;95990.63;;;21.08
34310;BMP280;61664;48.112;11.662;2023-10-09T14:47:55;95994.78;;;21.27
34310;BMP280;61664;48.112;11.662;2023-10-09T14:50:22;95984.84;;;21.30
34310;BMP280;61664;48.112;11.662;2023-10-09T14:52:50;95991.56;;;21.42
34310;BMP280;61664;48.112;11.662;2023-10-09T14:55:17;95990.34;;;21.43